createdAt,value
2022-12-05T00:01:52.589Z,95923.19
2022-12-05T00:04:55.726Z,95927.72
2022-12-05T00:07:58.791Z,95925.03
2022-12-05T00:11:01.869Z,95932.25
2022-12-05T00:14:06.316Z,95935.69
2022-12-05T00:17:10.981Z,95931.44
2022-12-05T00:20:14.177Z,95934.13
2022-12-05T00:23:17.224Z,95930.94
2022-12-05T00:26:20.996Z,95933.09
2022-12-05T00:29:23.992Z,95936.84
2022-12-05T00:32:30.137Z,95938.41
2022-12-05T00:35:34.649Z,95935.25
2022-12-05T00:38:38.375Z,95936.84
2022-12-05T00:41:41.483Z,95941.38
2022-12-05T00:44:44.570Z,95944.31
2022-12-05T00:47:49.032Z,95938.69
2022-12-05T00:50:52.042Z,95941.66
2022-12-05T00:53:56.044Z,95942.44
2022-12-05T00:56:59.136Z,95940.84
2022-12-05T01:00:02.226Z,95940.06
2022-12-05T01:03:06.765Z,95925.16
2022-12-05T01:06:11.359Z,95917.16
2022-12-05T01:09:16.371Z,95919.81
2022-12-05T01:12:19.450Z,95919.03
2022-12-05T01:15:22.486Z,95922.75
2022-12-05T01:18:28.069Z,95921.94
2022-12-05T01:21:31.185Z,95927.28
2022-12-05T01:24:34.231Z,95926.19
2022-12-05T01:27:37.276Z,95931.53
2022-12-05T01:30:41.290Z,95925.16
2022-12-05T01:33:45.851Z,95916.63
2022-12-05T01:36:49.337Z,95912.38
2022-12-05T01:39:52.381Z,95907.34
2022-12-05T01:42:55.912Z,95902.78
2022-12-05T01:45:59.097Z,95903.31
2022-12-05T01:49:08.828Z,95909.72
2022-12-05T01:52:18.305Z,95897.47
2022-12-05T01:55:21.736Z,95892.16
2022-12-05T01:58:29.569Z,95896.69
2022-12-05T02:01:32.911Z,95906.53
2022-12-05T02:04:51.560Z,95898.56
2022-12-05T02:07:55.075Z,95887.38
2022-12-05T02:10:59.618Z,95895.09
2022-12-05T02:14:25.810Z,95904.94
2022-12-05T02:17:37.586Z,95903.38
2022-12-05T02:20:52.955Z,95893.50
2022-12-05T02:24:32.357Z,95898.03
2022-12-05T02:27:54.987Z,95896.16
2022-12-05T02:31:06.526Z,95898.03
2022-12-05T02:34:18.416Z,95898.84
2022-12-05T02:37:29.492Z,95891.91
2022-12-05T02:40:40.817Z,95897.53
2022-12-05T02:43:49.057Z,95893.78
2022-12-05T02:46:55.392Z,95889.53
2022-12-05T02:49:59.982Z,95897.53
2022-12-05T02:53:09.446Z,95892.19
2022-12-05T02:56:13.884Z,95881.84
2022-12-05T02:59:22.884Z,95884.22
2022-12-05T03:02:29.607Z,95879.97
2022-12-05T03:05:42.340Z,95873.56
2022-12-05T03:08:50.015Z,95873.56
2022-12-05T03:11:56.192Z,95870.09
2022-12-05T03:15:02.379Z,95868.53
2022-12-05T03:18:13.165Z,95878.38
2022-12-05T03:21:25.978Z,95881.84
2022-12-05T03:24:30.048Z,95882.91
2022-12-05T03:27:42.604Z,95886.38
2022-12-05T03:30:49.159Z,95884.50
2022-12-05T03:33:59.007Z,95878.66
2022-12-05T03:37:06.322Z,95884.00
2022-12-05T03:40:16.534Z,95890.09
2022-12-05T03:43:27.201Z,95887.44
2022-12-05T03:46:33.688Z,95882.41
2022-12-05T03:49:42.592Z,95889.59
2022-12-05T03:53:18.024Z,95886.94
2022-12-05T03:56:20.153Z,95887.72
2022-12-05T03:59:31.628Z,95894.63
2022-12-05T04:02:45.505Z,95901.84
2022-12-05T04:05:55.244Z,95900.25
2022-12-05T04:09:02.848Z,95891.22
2022-12-05T04:12:10.758Z,95897.59
2022-12-05T04:15:20.642Z,95886.94
2022-12-05T04:18:27.238Z,95887.44
2022-12-05T04:21:41.687Z,95880.25
2022-12-05T04:25:02.019Z,95886.88
2022-12-05T04:28:21.509Z,95870.38
2022-12-05T04:31:28.826Z,95871.19
2022-12-05T04:34:34.007Z,95876.97
2022-12-05T04:37:43.815Z,95876.69
2022-12-05T04:40:53.939Z,95876.75
2022-12-05T04:44:00.671Z,95885.28
2022-12-05T04:47:07.325Z,95894.63
2022-12-05T04:50:13.669Z,95901.03
2022-12-05T04:53:19.145Z,95899.41
2022-12-05T04:56:25.483Z,95896.69
2022-12-05T04:59:28.571Z,95902.22
2022-12-05T05:02:36.317Z,95909.06
2022-12-05T05:05:40.497Z,95904.81
2022-12-05T05:08:50.539Z,95905.59
2022-12-05T05:11:53.551Z,95906.34
2022-12-05T05:14:56.599Z,95914.59
2022-12-05T05:17:59.789Z,95916.47
2022-12-05T05:21:02.856Z,95922.19
2022-12-05T05:24:09.490Z,95920.41
2022-12-05T05:27:12.501Z,95927.06
2022-12-05T05:30:15.802Z,95917.53
2022-12-05T05:33:18.777Z,95917.78
2022-12-05T05:36:23.776Z,95920.72
2022-12-05T05:39:29.878Z,95915.91
2022-12-05T05:42:32.918Z,95914.59
2022-12-05T05:45:37.425Z,95917.78
2022-12-05T05:48:40.858Z,95918.34
2022-12-05T05:51:43.844Z,95925.22
2022-12-05T05:54:48.321Z,95931.09
2022-12-05T05:57:51.332Z,95933.75
2022-12-05T06:00:54.409Z,95935.09
2022-12-05T06:03:57.770Z,95937.19
2022-12-05T06:07:00.891Z,95932.41
2022-12-05T06:10:06.406Z,95938.53
2022-12-05T06:13:09.439Z,95947.81
2022-12-05T06:16:15.059Z,95951.03
2022-12-05T06:19:18.138Z,95950.72
2022-12-05T06:22:21.237Z,95949.41
2022-12-05T06:25:25.624Z,95947.53
2022-12-05T06:28:28.754Z,95949.16
2022-12-05T06:31:34.005Z,95946.78
2022-12-05T06:34:37.550Z,95942.25
2022-12-05T06:37:40.563Z,95943.56
2022-12-05T06:40:46.259Z,95957.66
2022-12-05T06:43:49.347Z,95952.88
2022-12-05T06:46:52.408Z,95956.84
2022-12-05T06:49:55.712Z,95955.75
2022-12-05T06:52:59.073Z,95953.38
2022-12-05T06:56:08.358Z,95957.88
2022-12-05T06:59:11.395Z,95955.75
2022-12-05T07:02:14.897Z,95956.81
2022-12-05T07:05:18.096Z,95943.03
2022-12-05T07:08:21.144Z,95947.00
2022-12-05T07:11:25.675Z,95956.56
2022-12-05T07:14:47.090Z,95954.16
2022-12-05T07:17:51.435Z,95961.34
2022-12-05T07:21:14.351Z,95952.31
2022-12-05T07:24:17.760Z,95960.00
2022-12-05T07:27:27.340Z,95954.97
2022-12-05T07:30:31.165Z,95962.94
2022-12-05T07:33:34.389Z,95967.16
2022-12-05T07:36:37.457Z,95975.13
2022-12-05T07:39:40.636Z,95977.53
2022-12-05T07:42:45.089Z,95979.13
2022-12-05T07:45:48.383Z,95974.88
2022-12-05T07:48:52.362Z,95979.91
2022-12-05T07:51:55.419Z,95977.75
2022-12-05T07:54:59.244Z,95984.38
2022-12-05T07:58:03.686Z,95981.22
2022-12-05T08:01:10.675Z,95976.69
2022-12-05T08:04:15.842Z,95977.50
2022-12-05T08:07:19.074Z,95972.47
2022-12-05T08:10:22.083Z,95970.63
2022-12-05T08:13:26.492Z,95971.41
2022-12-05T08:16:31.375Z,95961.31
2022-12-05T08:19:34.919Z,95978.59
2022-12-05T08:22:38.006Z,95974.31
2022-12-05T08:25:41.449Z,95969.28
2022-12-05T08:28:46.390Z,95964.25
2022-12-05T08:31:51.246Z,95967.69
2022-12-05T08:34:54.812Z,95973.25
2022-12-05T08:37:57.896Z,95974.31
2022-12-05T08:41:02.457Z,95965.31
2022-12-05T08:44:08.273Z,95970.09
2022-12-05T08:47:11.260Z,95966.13
2022-12-05T08:50:14.237Z,95967.41
2022-12-05T08:53:17.730Z,95967.44
2022-12-05T08:56:26.497Z,95974.31
2022-12-05T08:59:32.440Z,95970.06
2022-12-05T09:02:35.558Z,95963.47
2022-12-05T09:05:38.979Z,95966.13
2022-12-05T09:08:43.614Z,95965.59
2022-12-05T09:11:49.261Z,95963.72
2022-12-05T09:14:53.925Z,95969.81
2022-12-05T09:17:57.029Z,95970.59
2022-12-05T09:21:00.108Z,95960.81
2022-12-05T09:24:03.238Z,95949.66
2022-12-05T09:27:06.177Z,95953.63
2022-12-05T09:30:11.849Z,95948.56
2022-12-05T09:33:14.853Z,95948.56
2022-12-05T09:36:20.014Z,95953.34
2022-12-05T09:39:23.423Z,95944.88
2022-12-05T09:42:40.323Z,95941.41
2022-12-05T09:45:53.677Z,95950.16
2022-12-05T09:48:58.345Z,95936.38
2022-12-05T09:52:02.279Z,95935.06
2022-12-05T09:55:12.209Z,95934.28
2022-12-05T09:58:24.001Z,95935.34
2022-12-05T10:01:38.655Z,95929.47
2022-12-05T10:05:00.608Z,95934.78
2022-12-05T10:08:14.017Z,95928.19
2022-12-05T10:11:25.604Z,95927.34
2022-12-05T10:14:39.486Z,95926.28
2022-12-05T10:17:48.139Z,95918.88
2022-12-05T10:20:53.690Z,95913.84
2022-12-05T10:24:00.401Z,95913.03
2022-12-05T10:27:08.145Z,95911.69
2022-12-05T10:30:16.302Z,95903.75
2022-12-05T10:33:23.289Z,95912.25
2022-12-05T10:36:27.012Z,95914.63
2022-12-05T10:39:30.104Z,95906.66
2022-12-05T10:42:36.604Z,95910.91
2022-12-05T10:45:45.025Z,95898.44
2022-12-05T10:48:49.457Z,95898.44
2022-12-05T10:51:53.129Z,95890.22
2022-12-05T10:55:00.352Z,95881.47
2022-12-05T10:58:17.514Z,95891.53
2022-12-05T11:01:21.196Z,95891.81
2022-12-05T11:04:30.064Z,95889.97
2022-12-05T11:07:35.306Z,95880.16
2022-12-05T11:10:41.087Z,95877.47
2022-12-05T11:13:54.259Z,95879.88
2022-12-05T11:16:59.380Z,95880.41
2022-12-05T11:20:05.473Z,95876.66
2022-12-05T11:23:26.787Z,95873.25
2022-12-05T11:26:37.233Z,95867.94
2022-12-05T11:29:41.246Z,95870.31
2022-12-05T11:32:44.304Z,95865.28
2022-12-05T11:35:50.546Z,95852.81
2022-12-05T11:38:54.273Z,95854.94
2022-12-05T11:42:21.707Z,95856.53
2022-12-05T11:45:45.313Z,95849.66
2022-12-05T11:49:14.232Z,95839.31
2022-12-05T11:52:31.437Z,95842.22
2022-12-05T11:55:43.880Z,95837.44
2022-12-05T11:59:02.286Z,95842.75
2022-12-05T12:02:20.237Z,95830.56
2022-12-05T12:05:33.224Z,95826.28
2022-12-05T12:08:48.795Z,95836.63
2022-12-05T12:12:00.897Z,95819.41
2022-12-05T12:15:21.125Z,95824.69
2022-12-05T12:18:46.487Z,95816.50
2022-12-05T12:22:07.726Z,95813.81
2022-12-05T12:25:33.305Z,95803.22
2022-12-05T12:28:46.276Z,95808.28
2022-12-05T12:31:59.720Z,95806.94
2022-12-05T12:35:20.994Z,95803.50
2022-12-05T12:38:56.911Z,95810.91
2022-12-05T12:42:21.677Z,95793.97
2022-12-05T12:45:40.704Z,95795.81
2022-12-05T12:49:06.517Z,95797.69
2022-12-05T12:52:16.173Z,95797.66
2022-12-05T12:55:26.081Z,95793.91
2022-12-05T12:58:48.262Z,95791.69
2022-12-05T13:01:59.119Z,95787.81
2022-12-05T13:05:07.911Z,95788.25
2022-12-05T13:08:18.184Z,95783.38
2022-12-05T13:11:23.253Z,95786.50
2022-12-05T13:14:30.612Z,95788.84
2022-12-05T13:17:34.560Z,95781.59
2022-12-05T13:20:38.075Z,95792.72
2022-12-05T13:23:48.021Z,95792.97
2022-12-05T13:26:51.761Z,95793.72
2022-12-05T13:29:59.559Z,95795.28
2022-12-05T13:33:10.338Z,95788.38
2022-12-05T13:36:33.646Z,95786.72
2022-12-05T13:39:54.000Z,95791.19
2022-12-05T13:43:04.441Z,95790.91
2022-12-05T13:46:13.920Z,95791.19
2022-12-05T13:49:33.026Z,95794.94
2022-12-05T13:52:45.388Z,95790.34
2022-12-05T13:55:58.037Z,95790.88
2022-12-05T13:59:01.098Z,95788.75
2022-12-05T14:02:47.241Z,95788.22
2022-12-05T14:05:53.390Z,95793.28
2022-12-05T14:08:56.477Z,95808.69
2022-12-05T14:12:45.496Z,95795.66
2022-12-05T14:15:50.235Z,95792.72
2022-12-05T14:19:04.278Z,95789.00
2022-12-05T14:22:31.311Z,95792.19
2022-12-05T14:25:59.001Z,95802.06
2022-12-05T14:29:19.359Z,95803.13
2022-12-05T14:32:26.317Z,95798.84
2022-12-05T14:35:32.894Z,95794.31
2022-12-05T14:38:38.003Z,95794.59
2022-12-05T14:41:41.229Z,95791.13
2022-12-05T14:44:48.601Z,95795.94
2022-12-05T14:47:54.163Z,95800.19
2022-12-05T14:51:00.222Z,95793.00
2022-12-05T14:54:07.482Z,95806.84
2022-12-05T14:57:16.297Z,95813.78
2022-12-05T15:00:23.284Z,95806.28
2022-12-05T15:03:31.223Z,95806.28
2022-12-05T15:06:43.779Z,95802.84
2022-12-05T15:09:57.274Z,95797.25
2022-12-05T15:13:05.421Z,95798.03
2022-12-05T15:16:16.105Z,95799.38
2022-12-05T15:19:24.230Z,95792.97
2022-12-05T15:22:30.600Z,95792.16
2022-12-05T15:25:33.981Z,95790.03
2022-12-05T15:28:37.040Z,95801.47
2022-12-05T15:31:45.973Z,95792.97
2022-12-05T15:34:55.315Z,95792.41
2022-12-05T15:38:03.164Z,95791.59
2022-12-05T15:41:06.238Z,95794.56
2022-12-05T15:44:12.681Z,95796.66
2022-12-05T15:47:21.868Z,95794.00
2022-12-05T15:50:31.728Z,95790.81
2022-12-05T15:53:39.654Z,95772.25
2022-12-05T15:56:46.817Z,95790.25
2022-12-05T15:59:55.570Z,95792.41
2022-12-05T16:03:05.296Z,95785.50
2022-12-05T16:06:12.378Z,95796.38
2022-12-05T16:09:19.178Z,95794.78
2022-12-05T16:12:27.328Z,95781.53
2022-12-05T16:15:30.528Z,95784.19
2022-12-05T16:18:34.119Z,95779.66
2022-12-05T16:21:39.504Z,95792.13
2022-12-05T16:24:48.401Z,95793.19
2022-12-05T16:27:59.073Z,95796.66
2022-12-05T16:31:05.388Z,95797.44
2022-12-05T16:34:15.332Z,95796.66
2022-12-05T16:37:26.782Z,95801.41
2022-12-05T16:40:31.207Z,95799.81
2022-12-05T16:43:45.803Z,95784.13
2022-12-05T16:46:48.967Z,95795.00
2022-12-05T16:49:52.753Z,95792.09
2022-12-05T16:53:03.119Z,95784.34
2022-12-05T16:56:11.163Z,95783.63
2022-12-05T16:59:22.543Z,95787.28
2022-12-05T17:02:25.727Z,95790.66
2022-12-05T17:05:30.265Z,95787.44
2022-12-05T17:08:33.489Z,95787.94
2022-12-05T17:11:41.107Z,95789.09
2022-12-05T17:14:44.263Z,95793.78
2022-12-05T17:17:47.926Z,95791.66
2022-12-05T17:20:53.965Z,95803.13
2022-12-05T17:23:57.051Z,95779.03
2022-12-05T17:27:01.545Z,95800.25
2022-12-05T17:30:05.161Z,95795.72
2022-12-05T17:33:11.000Z,95791.25
2022-12-05T17:36:14.638Z,95790.97
2022-12-05T17:39:17.706Z,95794.19
2022-12-05T17:42:22.156Z,95788.88
2022-12-05T17:45:25.219Z,95799.00
2022-12-05T17:48:28.653Z,95786.50
2022-12-05T17:51:31.683Z,95793.09
2022-12-05T17:54:34.810Z,95805.63
2022-12-05T17:57:39.218Z,95782.31
2022-12-05T18:00:43.355Z,95796.59
2022-12-05T18:03:46.500Z,95794.75
2022-12-05T18:06:49.524Z,95795.84
2022-12-05T18:09:52.764Z,95806.72
2022-12-05T18:12:57.180Z,95806.72
2022-12-05T18:16:01.447Z,95804.84
2022-12-05T18:19:04.523Z,95809.09
2022-12-05T18:22:07.603Z,95804.78
2022-12-05T18:25:12.836Z,95809.03
2022-12-05T18:28:19.574Z,95815.06
2022-12-05T18:31:24.197Z,95812.69
2022-12-05T18:34:27.424Z,95812.13
2022-12-05T18:37:30.632Z,95813.47
2022-12-05T18:40:33.671Z,95812.38
2022-12-05T18:43:38.226Z,95811.53
2022-12-05T18:46:41.468Z,95811.69
2022-12-05T18:49:44.576Z,95805.34
2022-12-05T18:52:47.570Z,95811.69
2022-12-05T18:56:13.502Z,95802.19
2022-12-05T18:59:17.441Z,95809.03
2022-12-05T19:02:20.484Z,95809.00
2022-12-05T19:05:23.544Z,95802.31
2022-12-05T19:08:26.846Z,95801.50
2022-12-05T19:11:30.464Z,95807.84
2022-12-05T19:14:35.443Z,95800.38
2022-12-05T19:17:38.554Z,95793.47
2022-12-05T19:20:41.712Z,95795.31
2022-12-05T19:23:44.827Z,95795.31
2022-12-05T19:26:48.897Z,95801.00
2022-12-05T19:29:53.330Z,95802.88
2022-12-05T19:32:56.466Z,95799.13
2022-12-05T19:36:03.312Z,95796.41
2022-12-05T19:39:10.231Z,95792.94
2022-12-05T19:42:13.312Z,95796.19
2022-12-05T19:45:18.285Z,95775.44
2022-12-05T19:48:21.401Z,95782.50
2022-12-05T19:51:24.856Z,95787.13
2022-12-05T19:54:28.144Z,95790.28
2022-12-05T19:57:31.605Z,95784.16
2022-12-05T20:00:36.189Z,95776.69
2022-12-05T20:03:39.776Z,95788.19
2022-12-05T20:06:44.939Z,95784.53
2022-12-05T20:09:48.320Z,95782.16
2022-12-05T20:12:51.388Z,95775.44
2022-12-05T20:15:55.836Z,95776.25
2022-12-05T20:18:59.897Z,95770.63
2022-12-05T20:22:03.126Z,95750.50
2022-12-05T20:25:06.960Z,95768.53
2022-12-05T20:28:10.017Z,95768.53
2022-12-05T20:31:16.444Z,95751.03
2022-12-05T20:34:19.615Z,95754.94
2022-12-05T20:37:22.709Z,95762.13
2022-12-05T20:40:25.784Z,95764.81
2022-12-05T20:43:29.538Z,95752.56
2022-12-05T20:46:35.118Z,95753.56
2022-12-05T20:49:38.277Z,95755.72
2022-12-05T20:52:46.628Z,95750.97
2022-12-05T20:55:50.098Z,95750.44
2022-12-05T20:58:55.873Z,95753.94
2022-12-05T21:02:00.339Z,95753.94
2022-12-05T21:05:03.546Z,95748.34
2022-12-05T21:08:07.385Z,95749.72
2022-12-05T21:11:12.096Z,95755.63
2022-12-05T21:14:15.116Z,95743.16
2022-12-05T21:17:19.603Z,95741.56
2022-12-05T21:20:22.760Z,95743.75
2022-12-05T21:23:26.041Z,95742.91
2022-12-05T21:26:31.765Z,95729.88
2022-12-05T21:29:34.775Z,95724.56
2022-12-05T21:32:39.362Z,95718.72
2022-12-05T21:35:42.352Z,95713.13
2022-12-05T21:38:48.403Z,95709.38
2022-12-05T21:41:56.145Z,95707.81
2022-12-05T21:44:59.316Z,95692.75
2022-12-05T21:48:03.882Z,95705.94
2022-12-05T21:51:08.204Z,95713.69
2022-12-05T21:54:11.387Z,95705.66
2022-12-05T21:57:14.428Z,95698.22
2022-12-05T22:00:18.018Z,95691.53
2022-12-05T22:03:22.478Z,95679.59
2022-12-05T22:06:25.554Z,95680.69
2022-12-05T22:09:28.644Z,95682.75
2022-12-05T22:12:34.368Z,95683.06
2022-12-05T22:15:37.539Z,95685.44
2022-12-05T22:18:42.870Z,95681.47
2022-12-05T22:21:45.902Z,95687.28
2022-12-05T22:24:48.883Z,95689.97
2022-12-05T22:27:51.942Z,95681.19
2022-12-05T22:30:56.603Z,95683.84
2022-12-05T22:34:01.107Z,95669.31
2022-12-05T22:37:04.151Z,95671.59
2022-12-05T22:40:08.676Z,95684.34
2022-12-05T22:43:11.704Z,95668.22
2022-12-05T22:46:18.336Z,95667.16
2022-12-05T22:49:25.192Z,95664.78
2022-12-05T22:52:28.493Z,95674.28
2022-12-05T22:55:32.721Z,95672.97
2022-12-05T22:58:36.568Z,95677.22
2022-12-05T23:01:39.820Z,95660.03
2022-12-05T23:04:44.216Z,95649.16
2022-12-05T23:07:47.254Z,95663.63
2022-12-05T23:10:50.320Z,95663.63
2022-12-05T23:14:01.457Z,95660.16
2022-12-05T23:17:04.962Z,95669.75
2022-12-05T23:20:10.200Z,95659.38
2022-12-05T23:23:13.318Z,95654.34
2022-12-05T23:26:17.318Z,95645.63
2022-12-05T23:29:20.525Z,95660.16
2022-12-05T23:32:23.641Z,95655.94
2022-12-05T23:35:29.162Z,95653.25
2022-12-05T23:38:32.354Z,95642.63
2022-12-05T23:41:35.482Z,95649.53
2022-12-05T23:44:38.575Z,95649.03
2022-12-05T23:47:41.654Z,95648.22
2022-12-05T23:50:46.081Z,95652.19
2022-12-05T23:53:53.313Z,95643.97
2022-12-05T23:56:56.400Z,95637.28
2022-12-05T23:59:59.797Z,95628.22
